Metar GG30 METAR message from awiacja.imgw.pl Metar G30 EPLL METAR EPLL 201530Z 16004KT 120V190 9999 FEW024 SCT042 05/02 Q1020 =